sensor_id;sensor_type;location;lat;lon;timestamp;temperature;humidity
25877;DHT22;13692;47.480;19.216;2023-12-20T00:02:17;0.60;99.90
25877;DHT22;13692;47.480;19.216;2023-12-20T00:04:44;0.50;99.90
25877;DHT22;13692;47.480;19.216;2023-12-20T00:07:11;0.50;99.90
25877;DHT22;13692;47.480;19.216;2023-12-20T00:09:39;0.50;99.90
25877;DHT22;13692;47.480;19.216;2023-12-20T00:12:06;0.60;99.90
25877;DHT22;13692;47.480;19.216;2023-12-20T00:14:33;0.60;99.90
25877;DHT22;13692;47.480;19.216;2023-12-20T00:17:00;0.60;99.90
25877;DHT22;13692;47.480;19.216;2023-12-20T00:19:27;0.60;99.90
25877;DHT22;13692;47.480;19.216;2023-12-20T00:21:54;0.80;99.90
25877;DHT22;13692;47.480;19.216;2023-12-20T00:24:21;0.70;99.90
25877;DHT22;13692;47.480;19.216;2023-12-20T00:26:48;0.60;99.90
25877;DHT22;13692;47.480;19.216;2023-12-20T00:29:14;0.60;99.90
25877;DHT22;13692;47.480;19.216;2023-12-20T00:31:41;0.80;99.90
25877;DHT22;13692;47.480;19.216;2023-12-20T00:34:08;0.70;99.90
25877;DHT22;13692;47.480;19.216;2023-12-20T00:36:36;0.60;99.90
25877;DHT22;13692;47.480;19.216;2023-12-20T00:39:03;0.60;99.90
25877;DHT22;13692;47.480;19.216;2023-12-20T00:41:31;0.50;99.90
25877;DHT22;13692;47.480;19.216;2023-12-20T00:43:58;0.50;99.90
25877;DHT22;13692;47.480;19.216;2023-12-20T00:46:25;0.40;99.90
25877;DHT22;13692;47.480;19.216;2023-12-20T00:48:52;0.50;99.90
25877;DHT22;13692;47.480;19.216;2023-12-20T00:51:20;0.60;99.90
25877;DHT22;13692;47.480;19.216;2023-12-20T00:53:47;0.50;99.90
25877;DHT22;13692;47.480;19.216;2023-12-20T00:56:16;0.80;99.90
25877;DHT22;13692;47.480;19.216;2023-12-20T00:58:43;0.60;99.90
25877;DHT22;13692;47.480;19.216;2023-12-20T01:01:10;0.60;99.90
25877;DHT22;13692;47.480;19.216;2023-12-20T01:03:37;0.80;99.90
25877;DHT22;13692;47.480;19.216;2023-12-20T01:06:05;0.70;99.90
25877;DHT22;13692;47.480;19.216;2023-12-20T01:08:33;0.40;99.90
25877;DHT22;13692;47.480;19.216;2023-12-20T01:11:04;0.40;99.90
25877;DHT22;13692;47.480;19.216;2023-12-20T01:13:32;0.40;99.90
25877;DHT22;13692;47.480;19.216;2023-12-20T01:15:59;0.50;99.90
25877;DHT22;13692;47.480;19.216;2023-12-20T01:18:26;0.50;99.90
25877;DHT22;13692;47.480;19.216;2023-12-20T01:20:53;0.60;99.90
25877;DHT22;13692;47.480;19.216;2023-12-20T01:23:20;0.90;99.90
25877;DHT22;13692;47.480;19.216;2023-12-20T01:25:47;0.60;99.90
25877;DHT22;13692;47.480;19.216;2023-12-20T01:28:14;0.60;99.90
25877;DHT22;13692;47.480;19.216;2023-12-20T01:30:41;0.80;99.90
25877;DHT22;13692;47.480;19.216;2023-12-20T01:33:08;0.70;99.90
25877;DHT22;13692;47.480;19.216;2023-12-20T01:35:35;0.70;99.90
25877;DHT22;13692;47.480;19.216;2023-12-20T01:38:02;0.60;99.90
25877;DHT22;13692;47.480;19.216;2023-12-20T01:40:29;0.60;99.90
25877;DHT22;13692;47.480;19.216;2023-12-20T01:43:07;0.70;99.90
25877;DHT22;13692;47.480;19.216;2023-12-20T01:45:35;0.70;99.90
25877;DHT22;13692;47.480;19.216;2023-12-20T01:48:05;0.70;99.90
25877;DHT22;13692;47.480;19.216;2023-12-20T01:50:34;0.70;99.90
25877;DHT22;13692;47.480;19.216;2023-12-20T01:53:02;0.70;99.90
25877;DHT22;13692;47.480;19.216;2023-12-20T01:55:33;0.70;99.90
25877;DHT22;13692;47.480;19.216;2023-12-20T01:58:01;0.70;99.90
25877;DHT22;13692;47.480;19.216;2023-12-20T02:00:30;0.80;99.90
25877;DHT22;13692;47.480;19.216;2023-12-20T02:03:01;0.70;99.90
25877;DHT22;13692;47.480;19.216;2023-12-20T02:05:32;0.80;99.90
25877;DHT22;13692;47.480;19.216;2023-12-20T02:07:59;1.20;99.90
25877;DHT22;13692;47.480;19.216;2023-12-20T02:10:27;0.80;99.90
25877;DHT22;13692;47.480;19.216;2023-12-20T02:12:54;0.80;99.90
25877;DHT22;13692;47.480;19.216;2023-12-20T02:15:21;0.90;99.90
25877;DHT22;13692;47.480;19.216;2023-12-20T02:17:49;1.20;99.90
25877;DHT22;13692;47.480;19.216;2023-12-20T02:20:16;0.90;99.90
25877;DHT22;13692;47.480;19.216;2023-12-20T02:22:43;1.10;99.90
25877;DHT22;13692;47.480;19.216;2023-12-20T02:25:10;0.90;99.90
25877;DHT22;13692;47.480;19.216;2023-12-20T02:27:38;0.90;99.90
25877;DHT22;13692;47.480;19.216;2023-12-20T02:30:06;0.90;99.90
25877;DHT22;13692;47.480;19.216;2023-12-20T02:32:33;0.90;99.90
25877;DHT22;13692;47.480;19.216;2023-12-20T02:35:00;0.90;99.90
25877;DHT22;13692;47.480;19.216;2023-12-20T02:37:27;0.80;99.90
25877;DHT22;13692;47.480;19.216;2023-12-20T02:39:54;0.80;99.90
25877;DHT22;13692;47.480;19.216;2023-12-20T02:42:21;0.90;99.90
25877;DHT22;13692;47.480;19.216;2023-12-20T02:44:48;0.80;99.90
25877;DHT22;13692;47.480;19.216;2023-12-20T02:47:16;0.80;99.90
25877;DHT22;13692;47.480;19.216;2023-12-20T02:49:42;0.80;99.90
25877;DHT22;13692;47.480;19.216;2023-12-20T02:52:09;1.00;99.90
25877;DHT22;13692;47.480;19.216;2023-12-20T02:54:36;0.80;99.90
25877;DHT22;13692;47.480;19.216;2023-12-20T02:57:04;0.90;99.90
25877;DHT22;13692;47.480;19.216;2023-12-20T02:59:31;0.70;99.90
25877;DHT22;13692;47.480;19.216;2023-12-20T03:01:58;0.70;99.90
25877;DHT22;13692;47.480;19.216;2023-12-20T03:04:25;0.70;99.90
25877;DHT22;13692;47.480;19.216;2023-12-20T03:06:52;1.10;99.90
25877;DHT22;13692;47.480;19.216;2023-12-20T03:09:19;0.60;99.90
25877;DHT22;13692;47.480;19.216;2023-12-20T03:11:46;0.60;99.90
25877;DHT22;13692;47.480;19.216;2023-12-20T03:14:13;0.60;99.90
25877;DHT22;13692;47.480;19.216;2023-12-20T03:16:40;0.70;99.90
25877;DHT22;13692;47.480;19.216;2023-12-20T03:19:07;0.90;99.90
25877;DHT22;13692;47.480;19.216;2023-12-20T03:21:34;0.90;99.90
25877;DHT22;13692;47.480;19.216;2023-12-20T03:24:01;1.00;99.90
25877;DHT22;13692;47.480;19.216;2023-12-20T03:26:27;1.20;99.90
25877;DHT22;13692;47.480;19.216;2023-12-20T03:28:54;0.80;99.90
25877;DHT22;13692;47.480;19.216;2023-12-20T03:31:21;0.70;99.90
25877;DHT22;13692;47.480;19.216;2023-12-20T03:33:48;0.60;99.90
25877;DHT22;13692;47.480;19.216;2023-12-20T03:36:16;0.50;99.90
25877;DHT22;13692;47.480;19.216;2023-12-20T03:38:43;0.60;99.90
25877;DHT22;13692;47.480;19.216;2023-12-20T03:41:10;0.50;99.90
25877;DHT22;13692;47.480;19.216;2023-12-20T03:43:37;0.40;99.90
25877;DHT22;13692;47.480;19.216;2023-12-20T03:46:04;0.30;99.90
25877;DHT22;13692;47.480;19.216;2023-12-20T03:48:31;0.30;99.90
25877;DHT22;13692;47.480;19.216;2023-12-20T03:50:58;0.40;99.90
25877;DHT22;13692;47.480;19.216;2023-12-20T03:53:26;0.40;99.90
25877;DHT22;13692;47.480;19.216;2023-12-20T03:55:52;0.60;99.90
25877;DHT22;13692;47.480;19.216;2023-12-20T03:58:19;0.60;99.90
25877;DHT22;13692;47.480;19.216;2023-12-20T04:00:46;0.70;99.90
25877;DHT22;13692;47.480;19.216;2023-12-20T04:03:14;0.70;99.90
25877;DHT22;13692;47.480;19.216;2023-12-20T04:05:41;0.70;99.90
25877;DHT22;13692;47.480;19.216;2023-12-20T04:08:08;0.80;99.90
25877;DHT22;13692;47.480;19.216;2023-12-20T04:10:37;0.80;99.90
25877;DHT22;13692;47.480;19.216;2023-12-20T04:13:04;0.80;99.90
25877;DHT22;13692;47.480;19.216;2023-12-20T04:15:31;0.80;99.90
25877;DHT22;13692;47.480;19.216;2023-12-20T04:17:58;0.70;99.90
25877;DHT22;13692;47.480;19.216;2023-12-20T04:20:26;0.40;99.90
25877;DHT22;13692;47.480;19.216;2023-12-20T04:22:53;0.40;99.90
25877;DHT22;13692;47.480;19.216;2023-12-20T04:25:20;0.30;99.90
25877;DHT22;13692;47.480;19.216;2023-12-20T04:27:48;0.30;99.90
25877;DHT22;13692;47.480;19.216;2023-12-20T04:30:15;0.30;99.90
25877;DHT22;13692;47.480;19.216;2023-12-20T04:32:42;0.30;99.90
25877;DHT22;13692;47.480;19.216;2023-12-20T04:35:09;0.40;99.90
25877;DHT22;13692;47.480;19.216;2023-12-20T04:37:36;0.30;99.90
25877;DHT22;13692;47.480;19.216;2023-12-20T04:40:04;0.20;99.90
25877;DHT22;13692;47.480;19.216;2023-12-20T04:42:32;0.20;99.90
25877;DHT22;13692;47.480;19.216;2023-12-20T04:44:59;0.20;99.90
25877;DHT22;13692;47.480;19.216;2023-12-20T04:47:26;0.40;99.90
25877;DHT22;13692;47.480;19.216;2023-12-20T04:49:53;0.50;99.90
25877;DHT22;13692;47.480;19.216;2023-12-20T04:52:20;0.20;99.90
25877;DHT22;13692;47.480;19.216;2023-12-20T04:54:48;0.00;99.90
25877;DHT22;13692;47.480;19.216;2023-12-20T04:57:15;-0.10;99.90
25877;DHT22;13692;47.480;19.216;2023-12-20T04:59:42;-0.10;99.90
25877;DHT22;13692;47.480;19.216;2023-12-20T05:02:09;-0.10;99.90
25877;DHT22;13692;47.480;19.216;2023-12-20T05:04:36;0.00;99.90
25877;DHT22;13692;47.480;19.216;2023-12-20T05:07:03;-0.10;99.90
25877;DHT22;13692;47.480;19.216;2023-12-20T05:09:32;-0.20;99.90
25877;DHT22;13692;47.480;19.216;2023-12-20T05:11:59;-0.20;99.90
25877;DHT22;13692;47.480;19.216;2023-12-20T05:14:27;0.20;99.90
25877;DHT22;13692;47.480;19.216;2023-12-20T05:16:54;0.00;99.90
25877;DHT22;13692;47.480;19.216;2023-12-20T05:19:21;0.40;99.90
25877;DHT22;13692;47.480;19.216;2023-12-20T05:21:48;0.00;99.90
25877;DHT22;13692;47.480;19.216;2023-12-20T05:24:16;0.00;99.90
25877;DHT22;13692;47.480;19.216;2023-12-20T05:26:43;0.10;99.90
25877;DHT22;13692;47.480;19.216;2023-12-20T05:29:10;0.00;99.90
25877;DHT22;13692;47.480;19.216;2023-12-20T05:31:37;0.00;99.90
25877;DHT22;13692;47.480;19.216;2023-12-20T05:34:04;0.10;99.90
25877;DHT22;13692;47.480;19.216;2023-12-20T05:36:31;0.20;99.90
25877;DHT22;13692;47.480;19.216;2023-12-20T05:38:58;0.30;99.90
25877;DHT22;13692;47.480;19.216;2023-12-20T05:41:25;0.60;99.90
25877;DHT22;13692;47.480;19.216;2023-12-20T05:43:52;0.40;99.90
25877;DHT22;13692;47.480;19.216;2023-12-20T05:46:19;0.50;99.90
25877;DHT22;13692;47.480;19.216;2023-12-20T05:48:46;0.50;99.90
25877;DHT22;13692;47.480;19.216;2023-12-20T05:51:13;0.70;99.90
25877;DHT22;13692;47.480;19.216;2023-12-20T05:53:40;0.50;99.90
25877;DHT22;13692;47.480;19.216;2023-12-20T05:56:07;0.50;99.90
25877;DHT22;13692;47.480;19.216;2023-12-20T05:58:34;0.50;99.90
25877;DHT22;13692;47.480;19.216;2023-12-20T06:01:04;0.50;99.90
25877;DHT22;13692;47.480;19.216;2023-12-20T06:03:31;0.50;99.90
25877;DHT22;13692;47.480;19.216;2023-12-20T06:05:58;0.60;99.90
25877;DHT22;13692;47.480;19.216;2023-12-20T06:08:41;0.80;99.90
25877;DHT22;13692;47.480;19.216;2023-12-20T06:11:10;0.70;99.90
25877;DHT22;13692;47.480;19.216;2023-12-20T06:13:37;0.50;99.90
25877;DHT22;13692;47.480;19.216;2023-12-20T06:16:05;0.30;99.90
25877;DHT22;13692;47.480;19.216;2023-12-20T06:18:33;0.30;99.90
25877;DHT22;13692;47.480;19.216;2023-12-20T06:21:00;0.30;99.90
25877;DHT22;13692;47.480;19.216;2023-12-20T06:23:27;0.50;99.90
25877;DHT22;13692;47.480;19.216;2023-12-20T06:25:54;0.20;99.90
25877;DHT22;13692;47.480;19.216;2023-12-20T06:28:21;0.30;99.90
25877;DHT22;13692;47.480;19.216;2023-12-20T06:30:48;0.70;99.90
25877;DHT22;13692;47.480;19.216;2023-12-20T06:33:16;0.60;99.90
25877;DHT22;13692;47.480;19.216;2023-12-20T06:35:45;0.30;99.90
25877;DHT22;13692;47.480;19.216;2023-12-20T06:38:12;0.50;99.90
25877;DHT22;13692;47.480;19.216;2023-12-20T06:40:39;0.50;99.90
25877;DHT22;13692;47.480;19.216;2023-12-20T06:43:06;0.40;99.90
25877;DHT22;13692;47.480;19.216;2023-12-20T06:45:46;0.40;99.90
25877;DHT22;13692;47.480;19.216;2023-12-20T06:48:13;0.40;99.90
25877;DHT22;13692;47.480;19.216;2023-12-20T06:50:40;0.50;99.90
25877;DHT22;13692;47.480;19.216;2023-12-20T06:53:07;0.50;99.90
25877;DHT22;13692;47.480;19.216;2023-12-20T06:55:35;0.50;99.90
25877;DHT22;13692;47.480;19.216;2023-12-20T06:58:04;0.50;99.90
25877;DHT22;13692;47.480;19.216;2023-12-20T07:00:32;0.50;99.90
25877;DHT22;13692;47.480;19.216;2023-12-20T07:02:59;0.50;99.90
25877;DHT22;13692;47.480;19.216;2023-12-20T07:05:26;0.50;99.90
25877;DHT22;13692;47.480;19.216;2023-12-20T07:07:53;0.50;99.90
25877;DHT22;13692;47.480;19.216;2023-12-20T07:10:21;0.50;99.90
25877;DHT22;13692;47.480;19.216;2023-12-20T07:12:48;0.50;99.90
25877;DHT22;13692;47.480;19.216;2023-12-20T07:15:15;0.60;99.90
25877;DHT22;13692;47.480;19.216;2023-12-20T07:17:42;0.60;99.90
25877;DHT22;13692;47.480;19.216;2023-12-20T07:20:11;0.60;99.90
25877;DHT22;13692;47.480;19.216;2023-12-20T07:22:38;0.60;99.90
25877;DHT22;13692;47.480;19.216;2023-12-20T07:25:06;0.50;99.90
25877;DHT22;13692;47.480;19.216;2023-12-20T07:27:33;0.60;99.90
25877;DHT22;13692;47.480;19.216;2023-12-20T07:30:00;1.00;99.90
25877;DHT22;13692;47.480;19.216;2023-12-20T07:32:27;0.70;99.90
25877;DHT22;13692;47.480;19.216;2023-12-20T07:34:54;0.70;99.90
25877;DHT22;13692;47.480;19.216;2023-12-20T07:37:21;0.70;99.90
25877;DHT22;13692;47.480;19.216;2023-12-20T07:39:48;0.80;99.90
25877;DHT22;13692;47.480;19.216;2023-12-20T07:42:15;0.80;99.90
25877;DHT22;13692;47.480;19.216;2023-12-20T07:44:42;0.80;99.90
25877;DHT22;13692;47.480;19.216;2023-12-20T07:47:09;0.80;99.90
25877;DHT22;13692;47.480;19.216;2023-12-20T07:49:36;0.90;99.90
25877;DHT22;13692;47.480;19.216;2023-12-20T07:52:03;1.10;99.90
25877;DHT22;13692;47.480;19.216;2023-12-20T07:54:30;0.80;99.90
25877;DHT22;13692;47.480;19.216;2023-12-20T07:56:57;0.70;99.90
25877;DHT22;13692;47.480;19.216;2023-12-20T07:59:24;0.70;99.90
25877;DHT22;13692;47.480;19.216;2023-12-20T08:01:58;0.80;99.90
25877;DHT22;13692;47.480;19.216;2023-12-20T08:04:26;0.80;99.90
25877;DHT22;13692;47.480;19.216;2023-12-20T08:06:54;0.90;99.90
25877;DHT22;13692;47.480;19.216;2023-12-20T08:09:21;0.80;99.90
25877;DHT22;13692;47.480;19.216;2023-12-20T08:11:48;0.80;99.90
25877;DHT22;13692;47.480;19.216;2023-12-20T08:14:16;0.80;99.90
25877;DHT22;13692;47.480;19.216;2023-12-20T08:16:43;1.00;99.90
25877;DHT22;13692;47.480;19.216;2023-12-20T08:19:10;0.90;99.90
25877;DHT22;13692;47.480;19.216;2023-12-20T08:21:37;1.30;99.90
25877;DHT22;13692;47.480;19.216;2023-12-20T08:24:05;0.80;99.90
25877;DHT22;13692;47.480;19.216;2023-12-20T08:26:33;0.80;99.90
25877;DHT22;13692;47.480;19.216;2023-12-20T08:29:00;0.70;99.90
25877;DHT22;13692;47.480;19.216;2023-12-20T08:31:28;0.70;99.90
25877;DHT22;13692;47.480;19.216;2023-12-20T08:33:56;0.60;99.90
25877;DHT22;13692;47.480;19.216;2023-12-20T08:36:23;0.60;99.90
25877;DHT22;13692;47.480;19.216;2023-12-20T08:38:51;0.60;99.90
25877;DHT22;13692;47.480;19.216;2023-12-20T08:41:18;0.50;99.90
25877;DHT22;13692;47.480;19.216;2023-12-20T08:43:45;0.40;99.90
25877;DHT22;13692;47.480;19.216;2023-12-20T08:46:14;0.40;99.90
25877;DHT22;13692;47.480;19.216;2023-12-20T08:48:41;0.60;99.90
25877;DHT22;13692;47.480;19.216;2023-12-20T08:51:08;1.00;99.90
25877;DHT22;13692;47.480;19.216;2023-12-20T08:53:36;0.90;99.90
25877;DHT22;13692;47.480;19.216;2023-12-20T08:56:03;1.00;99.90
25877;DHT22;13692;47.480;19.216;2023-12-20T08:58:30;1.10;99.90
25877;DHT22;13692;47.480;19.216;2023-12-20T09:00:57;1.50;99.90
25877;DHT22;13692;47.480;19.216;2023-12-20T09:03:25;1.20;99.90
25877;DHT22;13692;47.480;19.216;2023-12-20T09:05:52;1.30;99.90
25877;DHT22;13692;47.480;19.216;2023-12-20T09:08:18;1.30;99.90
25877;DHT22;13692;47.480;19.216;2023-12-20T09:10:45;1.30;99.90
25877;DHT22;13692;47.480;19.216;2023-12-20T09:13:13;1.30;99.90
25877;DHT22;13692;47.480;19.216;2023-12-20T09:15:40;1.40;99.90
25877;DHT22;13692;47.480;19.216;2023-12-20T09:18:07;1.40;99.90
25877;DHT22;13692;47.480;19.216;2023-12-20T09:20:34;1.70;99.90
25877;DHT22;13692;47.480;19.216;2023-12-20T09:23:01;1.50;99.90
25877;DHT22;13692;47.480;19.216;2023-12-20T09:25:28;1.80;99.90
25877;DHT22;13692;47.480;19.216;2023-12-20T09:27:56;1.70;99.90
25877;DHT22;13692;47.480;19.216;2023-12-20T09:30:23;1.70;99.90
25877;DHT22;13692;47.480;19.216;2023-12-20T09:32:55;1.70;99.90
25877;DHT22;13692;47.480;19.216;2023-12-20T09:35:23;1.70;99.90
25877;DHT22;13692;47.480;19.216;2023-12-20T09:37:50;1.70;99.90
25877;DHT22;13692;47.480;19.216;2023-12-20T09:40:20;1.70;99.90
25877;DHT22;13692;47.480;19.216;2023-12-20T09:42:53;1.80;99.90
25877;DHT22;13692;47.480;19.216;2023-12-20T09:45:23;1.90;99.90
25877;DHT22;13692;47.480;19.216;2023-12-20T09:47:51;1.80;99.90
25877;DHT22;13692;47.480;19.216;2023-12-20T09:50:21;1.80;99.90
25877;DHT22;13692;47.480;19.216;2023-12-20T09:52:51;1.90;99.90
25877;DHT22;13692;47.480;19.216;2023-12-20T09:55:19;1.90;99.90
25877;DHT22;13692;47.480;19.216;2023-12-20T09:57:47;1.90;99.90
25877;DHT22;13692;47.480;19.216;2023-12-20T10:00:16;2.00;99.90
25877;DHT22;13692;47.480;19.216;2023-12-20T10:02:57;2.10;99.90
25877;DHT22;13692;47.480;19.216;2023-12-20T10:05:29;2.10;99.90
25877;DHT22;13692;47.480;19.216;2023-12-20T10:07:57;2.20;99.90
25877;DHT22;13692;47.480;19.216;2023-12-20T10:10:24;2.30;99.90
25877;DHT22;13692;47.480;19.216;2023-12-20T10:13:09;2.30;99.90
25877;DHT22;13692;47.480;19.216;2023-12-20T10:15:38;2.30;99.90
25877;DHT22;13692;47.480;19.216;2023-12-20T10:18:05;2.40;99.90
25877;DHT22;13692;47.480;19.216;2023-12-20T10:20:32;2.40;99.90
25877;DHT22;13692;47.480;19.216;2023-12-20T10:23:00;2.50;99.90
25877;DHT22;13692;47.480;19.216;2023-12-20T10:25:28;2.50;99.90
25877;DHT22;13692;47.480;19.216;2023-12-20T10:28:15;2.60;99.90
25877;DHT22;13692;47.480;19.216;2023-12-20T10:30:48;2.70;99.90
25877;DHT22;13692;47.480;19.216;2023-12-20T10:33:26;2.60;99.90
25877;DHT22;13692;47.480;19.216;2023-12-20T10:35:55;2.60;99.90
25877;DHT22;13692;47.480;19.216;2023-12-20T10:38:22;2.70;99.90
25877;DHT22;13692;47.480;19.216;2023-12-20T10:40:54;2.70;99.90
25877;DHT22;13692;47.480;19.216;2023-12-20T10:43:24;2.60;99.90
25877;DHT22;13692;47.480;19.216;2023-12-20T10:45:53;2.40;99.90
25877;DHT22;13692;47.480;19.216;2023-12-20T10:48:21;2.30;99.90
25877;DHT22;13692;47.480;19.216;2023-12-20T10:50:49;2.40;99.90
25877;DHT22;13692;47.480;19.216;2023-12-20T10:53:17;2.50;99.90
25877;DHT22;13692;47.480;19.216;2023-12-20T10:55:44;2.70;99.90
25877;DHT22;13692;47.480;19.216;2023-12-20T10:58:13;2.80;99.90
25877;DHT22;13692;47.480;19.216;2023-12-20T11:00:41;3.00;99.90
25877;DHT22;13692;47.480;19.216;2023-12-20T11:03:11;3.10;99.90
25877;DHT22;13692;47.480;19.216;2023-12-20T11:05:50;3.00;99.90
25877;DHT22;13692;47.480;19.216;2023-12-20T11:08:33;3.00;99.90
25877;DHT22;13692;47.480;19.216;2023-12-20T11:13:52;3.20;99.90
25877;DHT22;13692;47.480;19.216;2023-12-20T11:16:20;3.20;99.90
25877;DHT22;13692;47.480;19.216;2023-12-20T11:18:51;3.20;99.90
25877;DHT22;13692;47.480;19.216;2023-12-20T11:21:18;3.30;99.90
25877;DHT22;13692;47.480;19.216;2023-12-20T11:23:45;3.30;99.90
25877;DHT22;13692;47.480;19.216;2023-12-20T11:26:16;3.30;99.90
25877;DHT22;13692;47.480;19.216;2023-12-20T11:28:44;3.30;99.90
25877;DHT22;13692;47.480;19.216;2023-12-20T11:31:14;3.20;99.90
25877;DHT22;13692;47.480;19.216;2023-12-20T11:33:42;3.20;99.90
25877;DHT22;13692;47.480;19.216;2023-12-20T11:36:18;3.30;99.90
25877;DHT22;13692;47.480;19.216;2023-12-20T11:38:56;3.40;99.90
25877;DHT22;13692;47.480;19.216;2023-12-20T11:41:24;3.30;99.90
25877;DHT22;13692;47.480;19.216;2023-12-20T11:43:55;3.30;99.90
25877;DHT22;13692;47.480;19.216;2023-12-20T11:46:23;3.30;99.90
25877;DHT22;13692;47.480;19.216;2023-12-20T11:48:50;3.30;99.90
25877;DHT22;13692;47.480;19.216;2023-12-20T11:51:18;3.30;99.90
25877;DHT22;13692;47.480;19.216;2023-12-20T11:53:45;3.40;99.90
25877;DHT22;13692;47.480;19.216;2023-12-20T11:56:18;3.50;99.90
25877;DHT22;13692;47.480;19.216;2023-12-20T11:58:45;3.60;99.90
25877;DHT22;13692;47.480;19.216;2023-12-20T12:01:15;3.60;99.90
25877;DHT22;13692;47.480;19.216;2023-12-20T12:03:44;3.70;99.90
25877;DHT22;13692;47.480;19.216;2023-12-20T12:06:12;3.70;99.90
25877;DHT22;13692;47.480;19.216;2023-12-20T12:08:39;3.80;99.90
25877;DHT22;13692;47.480;19.216;2023-12-20T12:11:07;3.90;99.90
25877;DHT22;13692;47.480;19.216;2023-12-20T12:13:34;3.90;99.90
25877;DHT22;13692;47.480;19.216;2023-12-20T12:16:02;3.80;99.90
25877;DHT22;13692;47.480;19.216;2023-12-20T12:18:29;3.80;99.90
25877;DHT22;13692;47.480;19.216;2023-12-20T12:21:02;3.80;99.90
25877;DHT22;13692;47.480;19.216;2023-12-20T12:23:38;3.90;99.90
25877;DHT22;13692;47.480;19.216;2023-12-20T12:26:06;4.00;99.90
25877;DHT22;13692;47.480;19.216;2023-12-20T12:28:34;4.10;99.90
25877;DHT22;13692;47.480;19.216;2023-12-20T12:31:01;4.10;99.90
25877;DHT22;13692;47.480;19.216;2023-12-20T12:33:29;4.10;99.90
25877;DHT22;13692;47.480;19.216;2023-12-20T12:35:56;4.20;99.90
25877;DHT22;13692;47.480;19.216;2023-12-20T12:38:24;4.20;99.90
25877;DHT22;13692;47.480;19.216;2023-12-20T12:40:51;4.30;99.90
25877;DHT22;13692;47.480;19.216;2023-12-20T12:43:20;4.40;99.90
25877;DHT22;13692;47.480;19.216;2023-12-20T12:45:49;4.40;99.90
25877;DHT22;13692;47.480;19.216;2023-12-20T12:48:16;4.50;99.90
25877;DHT22;13692;47.480;19.216;2023-12-20T12:50:46;4.50;99.90
25877;DHT22;13692;47.480;19.216;2023-12-20T12:53:12;4.40;99.90
25877;DHT22;13692;47.480;19.216;2023-12-20T12:55:40;4.40;99.90
25877;DHT22;13692;47.480;19.216;2023-12-20T12:58:07;4.30;99.90
25877;DHT22;13692;47.480;19.216;2023-12-20T13:00:34;4.20;99.90
25877;DHT22;13692;47.480;19.216;2023-12-20T13:03:01;4.20;99.90
25877;DHT22;13692;47.480;19.216;2023-12-20T13:05:28;4.30;99.90
25877;DHT22;13692;47.480;19.216;2023-12-20T13:07:56;4.30;99.90
25877;DHT22;13692;47.480;19.216;2023-12-20T13:10:23;4.30;99.90
25877;DHT22;13692;47.480;19.216;2023-12-20T13:12:50;4.30;99.90
25877;DHT22;13692;47.480;19.216;2023-12-20T13:15:17;4.30;99.90
25877;DHT22;13692;47.480;19.216;2023-12-20T13:17:45;4.20;99.90
25877;DHT22;13692;47.480;19.216;2023-12-20T13:20:13;4.20;99.90
25877;DHT22;13692;47.480;19.216;2023-12-20T13:22:40;4.30;99.90
25877;DHT22;13692;47.480;19.216;2023-12-20T13:25:07;4.30;99.90
25877;DHT22;13692;47.480;19.216;2023-12-20T13:27:34;4.40;99.90
25877;DHT22;13692;47.480;19.216;2023-12-20T13:30:01;4.40;99.90
25877;DHT22;13692;47.480;19.216;2023-12-20T13:32:29;4.30;99.90
25877;DHT22;13692;47.480;19.216;2023-12-20T13:34:57;4.30;99.90
25877;DHT22;13692;47.480;19.216;2023-12-20T13:37:24;4.30;99.90
25877;DHT22;13692;47.480;19.216;2023-12-20T13:39:51;4.20;99.90
25877;DHT22;13692;47.480;19.216;2023-12-20T13:42:18;4.30;99.90
25877;DHT22;13692;47.480;19.216;2023-12-20T13:44:47;4.30;99.90
25877;DHT22;13692;47.480;19.216;2023-12-20T13:47:14;4.40;99.90
25877;DHT22;13692;47.480;19.216;2023-12-20T13:49:41;4.40;99.90
25877;DHT22;13692;47.480;19.216;2023-12-20T13:52:07;4.40;99.90
25877;DHT22;13692;47.480;19.216;2023-12-20T13:54:34;4.40;99.90
25877;DHT22;13692;47.480;19.216;2023-12-20T13:57:01;4.40;99.90
25877;DHT22;13692;47.480;19.216;2023-12-20T13:59:42;4.40;99.90
25877;DHT22;13692;47.480;19.216;2023-12-20T14:02:09;4.40;99.90
25877;DHT22;13692;47.480;19.216;2023-12-20T14:04:36;4.40;99.90
25877;DHT22;13692;47.480;19.216;2023-12-20T14:07:10;4.40;99.90
25877;DHT22;13692;47.480;19.216;2023-12-20T14:09:39;4.40;99.90
25877;DHT22;13692;47.480;19.216;2023-12-20T14:12:12;4.40;99.90
25877;DHT22;13692;47.480;19.216;2023-12-20T14:14:39;4.30;99.90
25877;DHT22;13692;47.480;19.216;2023-12-20T14:17:06;4.40;99.90
25877;DHT22;13692;47.480;19.216;2023-12-20T14:19:33;4.30;99.90
25877;DHT22;13692;47.480;19.216;2023-12-20T14:22:00;4.30;99.90
25877;DHT22;13692;47.480;19.216;2023-12-20T14:24:28;4.40;99.90
25877;DHT22;13692;47.480;19.216;2023-12-20T14:26:55;4.40;99.90
25877;DHT22;13692;47.480;19.216;2023-12-20T14:29:22;4.40;99.90
25877;DHT22;13692;47.480;19.216;2023-12-20T14:31:53;4.50;99.90
25877;DHT22;13692;47.480;19.216;2023-12-20T14:34:19;4.50;99.90
25877;DHT22;13692;47.480;19.216;2023-12-20T14:36:47;4.50;99.90
25877;DHT22;13692;47.480;19.216;2023-12-20T14:39:14;4.50;99.90
25877;DHT22;13692;47.480;19.216;2023-12-20T14:41:42;4.60;99.90
25877;DHT22;13692;47.480;19.216;2023-12-20T14:44:09;4.70;99.90
25877;DHT22;13692;47.480;19.216;2023-12-20T14:46:36;4.70;99.90
25877;DHT22;13692;47.480;19.216;2023-12-20T14:49:06;4.80;99.90
25877;DHT22;13692;47.480;19.216;2023-12-20T14:51:33;4.80;99.90
25877;DHT22;13692;47.480;19.216;2023-12-20T14:54:00;4.80;99.90
25877;DHT22;13692;47.480;19.216;2023-12-20T14:56:27;4.90;99.90
25877;DHT22;13692;47.480;19.216;2023-12-20T14:58:54;4.90;99.90
25877;DHT22;13692;47.480;19.216;2023-12-20T15:01:21;5.00;99.90
25877;DHT22;13692;47.480;19.216;2023-12-20T15:03:48;5.00;99.90
25877;DHT22;13692;47.480;19.216;2023-12-20T15:06:16;5.00;99.90
25877;DHT22;13692;47.480;19.216;2023-12-20T15:08:43;5.00;99.90
25877;DHT22;13692;47.480;19.216;2023-12-20T15:11:11;5.00;99.90
25877;DHT22;13692;47.480;19.216;2023-12-20T15:13:38;5.00;99.90
25877;DHT22;13692;47.480;19.216;2023-12-20T15:16:05;5.00;99.90
25877;DHT22;13692;47.480;19.216;2023-12-20T15:18:32;4.90;99.90
25877;DHT22;13692;47.480;19.216;2023-12-20T15:20:59;4.90;99.90
25877;DHT22;13692;47.480;19.216;2023-12-20T15:23:26;5.00;99.90
25877;DHT22;13692;47.480;19.216;2023-12-20T15:25:55;5.10;99.90
25877;DHT22;13692;47.480;19.216;2023-12-20T15:28:22;5.20;99.90
25877;DHT22;13692;47.480;19.216;2023-12-20T15:30:49;5.30;99.90
25877;DHT22;13692;47.480;19.216;2023-12-20T15:33:16;5.30;99.90
25877;DHT22;13692;47.480;19.216;2023-12-20T15:35:43;5.40;99.90
25877;DHT22;13692;47.480;19.216;2023-12-20T15:38:10;5.40;99.90